sensor_id;sensor_type;location;lat;lon;timestamp;P1;durP1;ratioP1;P2;durP2;ratioP2
37701;SDS011;23548;51.196;6.838;2023-07-20T00:00:06;10.32;;;5.43;;
37701;SDS011;23548;51.196;6.838;2023-07-20T00:02:32;11.63;;;5.32;;
37701;SDS011;23548;51.196;6.838;2023-07-20T00:04:58;8.55;;;5.57;;
37701;SDS011;23548;51.196;6.838;2023-07-20T00:07:23;12.80;;;5.13;;
37701;SDS011;23548;51.196;6.838;2023-07-20T00:09:50;10.40;;;5.22;;
37701;SDS011;23548;51.196;6.838;2023-07-20T00:12:16;13.57;;;5.57;;
37701;SDS011;23548;51.196;6.838;2023-07-20T00:14:41;9.27;;;5.00;;
37701;SDS011;23548;51.196;6.838;2023-07-20T00:17:07;10.13;;;5.18;;
37701;SDS011;23548;51.196;6.838;2023-07-20T00:19:33;8.60;;;5.72;;
37701;SDS011;23548;51.196;6.838;2023-07-20T00:22:00;7.20;;;5.25;;
37701;SDS011;23548;51.196;6.838;2023-07-20T00:24:26;12.25;;;5.80;;
37701;SDS011;23548;51.196;6.838;2023-07-20T00:26:52;10.05;;;5.82;;
37701;SDS011;23548;51.196;6.838;2023-07-20T00:29:18;10.38;;;6.20;;
37701;SDS011;23548;51.196;6.838;2023-07-20T00:31:43;12.50;;;5.35;;
37701;SDS011;23548;51.196;6.838;2023-07-20T00:34:09;9.13;;;5.18;;
37701;SDS011;23548;51.196;6.838;2023-07-20T00:36:35;9.95;;;5.75;;
37701;SDS011;23548;51.196;6.838;2023-07-20T00:39:02;9.32;;;5.45;;
37701;SDS011;23548;51.196;6.838;2023-07-20T00:41:28;8.50;;;5.88;;
37701;SDS011;23548;51.196;6.838;2023-07-20T00:43:54;13.38;;;5.25;;
37701;SDS011;23548;51.196;6.838;2023-07-20T00:46:22;6.95;;;4.95;;
37701;SDS011;23548;51.196;6.838;2023-07-20T00:48:49;8.38;;;5.25;;
37701;SDS011;23548;51.196;6.838;2023-07-20T00:51:15;10.38;;;5.35;;
37701;SDS011;23548;51.196;6.838;2023-07-20T00:53:41;10.88;;;5.18;;
37701;SDS011;23548;51.196;6.838;2023-07-20T00:56:07;8.02;;;5.18;;
37701;SDS011;23548;51.196;6.838;2023-07-20T00:58:34;8.93;;;5.30;;
37701;SDS011;23548;51.196;6.838;2023-07-20T01:01:00;7.05;;;5.05;;
37701;SDS011;23548;51.196;6.838;2023-07-20T01:03:26;7.07;;;4.55;;
37701;SDS011;23548;51.196;6.838;2023-07-20T01:05:55;8.07;;;5.00;;
37701;SDS011;23548;51.196;6.838;2023-07-20T01:08:43;12.63;;;5.20;;
37701;SDS011;23548;51.196;6.838;2023-07-20T01:11:28;10.00;;;4.97;;
37701;SDS011;23548;51.196;6.838;2023-07-20T01:14:23;10.02;;;5.38;;
37701;SDS011;23548;51.196;6.838;2023-07-20T01:16:50;10.70;;;5.55;;
37701;SDS011;23548;51.196;6.838;2023-07-20T01:19:17;7.20;;;4.65;;
37701;SDS011;23548;51.196;6.838;2023-07-20T01:21:49;8.88;;;5.50;;
37701;SDS011;23548;51.196;6.838;2023-07-20T01:32:22;10.18;;;5.53;;
37701;SDS011;23548;51.196;6.838;2023-07-20T01:34:50;7.88;;;6.00;;
37701;SDS011;23548;51.196;6.838;2023-07-20T01:37:19;8.93;;;6.10;;
37701;SDS011;23548;51.196;6.838;2023-07-20T01:39:50;9.07;;;6.13;;
37701;SDS011;23548;51.196;6.838;2023-07-20T01:42:16;11.73;;;6.05;;
37701;SDS011;23548;51.196;6.838;2023-07-20T01:44:42;9.50;;;6.38;;
37701;SDS011;23548;51.196;6.838;2023-07-20T01:47:08;9.98;;;6.32;;
37701;SDS011;23548;51.196;6.838;2023-07-20T01:49:33;11.05;;;6.40;;
37701;SDS011;23548;51.196;6.838;2023-07-20T01:51:59;11.38;;;6.25;;
37701;SDS011;23548;51.196;6.838;2023-07-20T01:54:25;11.48;;;6.72;;
37701;SDS011;23548;51.196;6.838;2023-07-20T02:00:12;13.38;;;6.55;;
37701;SDS011;23548;51.196;6.838;2023-07-20T02:02:38;11.60;;;5.53;;
37701;SDS011;23548;51.196;6.838;2023-07-20T02:05:04;9.38;;;5.85;;
37701;SDS011;23548;51.196;6.838;2023-07-20T02:07:30;8.98;;;6.20;;
37701;SDS011;23548;51.196;6.838;2023-07-20T02:09:55;9.95;;;6.03;;
37701;SDS011;23548;51.196;6.838;2023-07-20T02:12:21;9.35;;;5.47;;
37701;SDS011;23548;51.196;6.838;2023-07-20T02:14:47;9.10;;;5.80;;
37701;SDS011;23548;51.196;6.838;2023-07-20T02:17:13;8.75;;;5.50;;
37701;SDS011;23548;51.196;6.838;2023-07-20T02:19:40;9.35;;;6.10;;
37701;SDS011;23548;51.196;6.838;2023-07-20T02:22:06;10.18;;;5.85;;
37701;SDS011;23548;51.196;6.838;2023-07-20T02:24:32;12.85;;;6.13;;
37701;SDS011;23548;51.196;6.838;2023-07-20T02:26:58;8.73;;;5.45;;
37701;SDS011;23548;51.196;6.838;2023-07-20T02:29:24;8.98;;;5.60;;
37701;SDS011;23548;51.196;6.838;2023-07-20T02:31:50;9.40;;;5.85;;
37701;SDS011;23548;51.196;6.838;2023-07-20T02:34:16;7.22;;;4.80;;
37701;SDS011;23548;51.196;6.838;2023-07-20T02:36:41;11.85;;;5.90;;
37701;SDS011;23548;51.196;6.838;2023-07-20T02:39:08;10.20;;;5.22;;
37701;SDS011;23548;51.196;6.838;2023-07-20T02:41:34;7.03;;;5.35;;
37701;SDS011;23548;51.196;6.838;2023-07-20T02:43:59;10.18;;;5.15;;
37701;SDS011;23548;51.196;6.838;2023-07-20T02:46:26;9.30;;;5.75;;
37701;SDS011;23548;51.196;6.838;2023-07-20T02:48:55;9.57;;;6.13;;
37701;SDS011;23548;51.196;6.838;2023-07-20T02:51:21;9.07;;;5.30;;
37701;SDS011;23548;51.196;6.838;2023-07-20T02:53:46;7.63;;;5.32;;
37701;SDS011;23548;51.196;6.838;2023-07-20T02:56:12;11.57;;;6.00;;
37701;SDS011;23548;51.196;6.838;2023-07-20T02:58:40;9.48;;;6.15;;
37701;SDS011;23548;51.196;6.838;2023-07-20T03:01:10;8.55;;;6.05;;
37701;SDS011;23548;51.196;6.838;2023-07-20T03:03:37;10.15;;;6.25;;
37701;SDS011;23548;51.196;6.838;2023-07-20T03:06:06;9.82;;;6.85;;
37701;SDS011;23548;51.196;6.838;2023-07-20T03:08:34;11.60;;;6.72;;
37701;SDS011;23548;51.196;6.838;2023-07-20T03:11:01;10.40;;;6.40;;
37701;SDS011;23548;51.196;6.838;2023-07-20T03:13:27;10.95;;;6.65;;
37701;SDS011;23548;51.196;6.838;2023-07-20T03:15:53;12.68;;;7.45;;
37701;SDS011;23548;51.196;6.838;2023-07-20T03:18:19;10.88;;;6.90;;
37701;SDS011;23548;51.196;6.838;2023-07-20T03:20:44;13.90;;;6.57;;
37701;SDS011;23548;51.196;6.838;2023-07-20T03:23:11;12.05;;;7.05;;
37701;SDS011;23548;51.196;6.838;2023-07-20T03:25:37;11.57;;;6.88;;
37701;SDS011;23548;51.196;6.838;2023-07-20T03:28:03;9.38;;;6.45;;
37701;SDS011;23548;51.196;6.838;2023-07-20T03:30:29;10.18;;;7.72;;
37701;SDS011;23548;51.196;6.838;2023-07-20T03:32:55;12.68;;;7.07;;
37701;SDS011;23548;51.196;6.838;2023-07-20T03:35:21;11.18;;;6.85;;
37701;SDS011;23548;51.196;6.838;2023-07-20T03:37:47;10.25;;;6.75;;
37701;SDS011;23548;51.196;6.838;2023-07-20T03:40:13;14.32;;;7.57;;
37701;SDS011;23548;51.196;6.838;2023-07-20T03:42:39;11.52;;;6.85;;
37701;SDS011;23548;51.196;6.838;2023-07-20T03:45:05;11.85;;;6.97;;
37701;SDS011;23548;51.196;6.838;2023-07-20T03:47:31;13.20;;;6.78;;
37701;SDS011;23548;51.196;6.838;2023-07-20T03:49:57;11.57;;;6.95;;
37701;SDS011;23548;51.196;6.838;2023-07-20T03:52:23;13.40;;;7.22;;
37701;SDS011;23548;51.196;6.838;2023-07-20T03:54:49;9.93;;;6.32;;
37701;SDS011;23548;51.196;6.838;2023-07-20T03:57:16;13.07;;;7.05;;
37701;SDS011;23548;51.196;6.838;2023-07-20T03:59:44;11.18;;;6.60;;
37701;SDS011;23548;51.196;6.838;2023-07-20T04:02:11;12.60;;;7.18;;
37701;SDS011;23548;51.196;6.838;2023-07-20T04:04:37;14.18;;;6.95;;
37701;SDS011;23548;51.196;6.838;2023-07-20T04:07:03;13.70;;;7.45;;
37701;SDS011;23548;51.196;6.838;2023-07-20T04:09:29;13.43;;;7.28;;
37701;SDS011;23548;51.196;6.838;2023-07-20T04:11:56;10.93;;;6.72;;
37701;SDS011;23548;51.196;6.838;2023-07-20T04:14:22;12.27;;;6.82;;
37701;SDS011;23548;51.196;6.838;2023-07-20T04:16:48;12.75;;;6.78;;
37701;SDS011;23548;51.196;6.838;2023-07-20T04:19:13;10.88;;;6.85;;
37701;SDS011;23548;51.196;6.838;2023-07-20T04:21:39;12.98;;;7.55;;
37701;SDS011;23548;51.196;6.838;2023-07-20T04:24:08;11.85;;;7.47;;
37701;SDS011;23548;51.196;6.838;2023-07-20T04:26:34;11.90;;;8.40;;
37701;SDS011;23548;51.196;6.838;2023-07-20T04:29:00;14.27;;;8.38;;
37701;SDS011;23548;51.196;6.838;2023-07-20T04:31:26;15.25;;;8.50;;
37701;SDS011;23548;51.196;6.838;2023-07-20T04:33:52;18.88;;;8.27;;
37701;SDS011;23548;51.196;6.838;2023-07-20T04:36:17;14.77;;;8.55;;
37701;SDS011;23548;51.196;6.838;2023-07-20T04:38:47;17.23;;;8.13;;
37701;SDS011;23548;51.196;6.838;2023-07-20T04:41:13;17.27;;;8.23;;
37701;SDS011;23548;51.196;6.838;2023-07-20T04:43:42;13.70;;;9.10;;
37701;SDS011;23548;51.196;6.838;2023-07-20T04:46:09;16.63;;;10.55;;
37701;SDS011;23548;51.196;6.838;2023-07-20T04:48:35;15.13;;;9.57;;
37701;SDS011;23548;51.196;6.838;2023-07-20T04:51:02;19.88;;;9.52;;
37701;SDS011;23548;51.196;6.838;2023-07-20T04:53:28;14.55;;;9.63;;
37701;SDS011;23548;51.196;6.838;2023-07-20T04:55:54;16.08;;;8.50;;
37701;SDS011;23548;51.196;6.838;2023-07-20T04:58:20;14.13;;;9.00;;
37701;SDS011;23548;51.196;6.838;2023-07-20T05:00:49;13.75;;;7.93;;
37701;SDS011;23548;51.196;6.838;2023-07-20T05:03:16;12.80;;;8.38;;
37701;SDS011;23548;51.196;6.838;2023-07-20T05:05:42;15.90;;;8.13;;
37701;SDS011;23548;51.196;6.838;2023-07-20T05:08:08;18.75;;;9.25;;
37701;SDS011;23548;51.196;6.838;2023-07-20T05:10:34;16.23;;;9.77;;
37701;SDS011;23548;51.196;6.838;2023-07-20T05:13:00;13.65;;;9.40;;
37701;SDS011;23548;51.196;6.838;2023-07-20T05:15:26;18.50;;;9.48;;
37701;SDS011;23548;51.196;6.838;2023-07-20T05:17:51;18.45;;;11.27;;
37701;SDS011;23548;51.196;6.838;2023-07-20T05:20:17;19.10;;;14.93;;
37701;SDS011;23548;51.196;6.838;2023-07-20T05:22:43;19.42;;;14.68;;
37701;SDS011;23548;51.196;6.838;2023-07-20T05:25:09;21.50;;;15.18;;
37701;SDS011;23548;51.196;6.838;2023-07-20T05:27:36;23.48;;;16.33;;
37701;SDS011;23548;51.196;6.838;2023-07-20T05:30:03;27.55;;;16.52;;
37701;SDS011;23548;51.196;6.838;2023-07-20T05:32:29;23.55;;;15.70;;
37701;SDS011;23548;51.196;6.838;2023-07-20T05:34:55;23.65;;;16.42;;
37701;SDS011;23548;51.196;6.838;2023-07-20T05:37:21;22.10;;;16.27;;
37701;SDS011;23548;51.196;6.838;2023-07-20T05:39:47;21.60;;;15.95;;
37701;SDS011;23548;51.196;6.838;2023-07-20T05:42:12;23.52;;;17.63;;
37701;SDS011;23548;51.196;6.838;2023-07-20T05:44:39;23.48;;;17.00;;
37701;SDS011;23548;51.196;6.838;2023-07-20T05:47:06;21.60;;;16.75;;
37701;SDS011;23548;51.196;6.838;2023-07-20T05:49:32;24.23;;;16.80;;
37701;SDS011;23548;51.196;6.838;2023-07-20T05:51:58;21.13;;;16.90;;
37701;SDS011;23548;51.196;6.838;2023-07-20T05:54:24;23.17;;;17.50;;
37701;SDS011;23548;51.196;6.838;2023-07-20T05:56:50;21.48;;;17.40;;
37701;SDS011;23548;51.196;6.838;2023-07-20T05:59:16;19.52;;;16.40;;
37701;SDS011;23548;51.196;6.838;2023-07-20T06:01:43;22.20;;;16.40;;
37701;SDS011;23548;51.196;6.838;2023-07-20T06:04:09;21.33;;;16.95;;
37701;SDS011;23548;51.196;6.838;2023-07-20T06:06:34;21.20;;;16.33;;
37701;SDS011;23548;51.196;6.838;2023-07-20T06:09:00;21.48;;;16.08;;
37701;SDS011;23548;51.196;6.838;2023-07-20T06:11:30;20.17;;;15.32;;
37701;SDS011;23548;51.196;6.838;2023-07-20T06:13:56;21.70;;;15.55;;
37701;SDS011;23548;51.196;6.838;2023-07-20T06:16:22;18.60;;;14.73;;
37701;SDS011;23548;51.196;6.838;2023-07-20T06:18:48;17.70;;;14.38;;
37701;SDS011;23548;51.196;6.838;2023-07-20T06:21:14;17.20;;;13.57;;
37701;SDS011;23548;51.196;6.838;2023-07-20T06:23:40;17.67;;;13.25;;
37701;SDS011;23548;51.196;6.838;2023-07-20T06:26:06;19.58;;;13.48;;
37701;SDS011;23548;51.196;6.838;2023-07-20T06:28:32;17.98;;;13.85;;
37701;SDS011;23548;51.196;6.838;2023-07-20T06:30:59;17.17;;;13.93;;
37701;SDS011;23548;51.196;6.838;2023-07-20T06:33:25;20.20;;;14.00;;
37701;SDS011;23548;51.196;6.838;2023-07-20T06:35:51;18.25;;;12.93;;
37701;SDS011;23548;51.196;6.838;2023-07-20T06:38:18;19.45;;;12.55;;
37701;SDS011;23548;51.196;6.838;2023-07-20T06:40:45;14.45;;;12.27;;
37701;SDS011;23548;51.196;6.838;2023-07-20T06:43:11;18.10;;;11.55;;
37701;SDS011;23548;51.196;6.838;2023-07-20T06:45:37;13.95;;;10.98;;
37701;SDS011;23548;51.196;6.838;2023-07-20T06:48:03;15.75;;;12.40;;
37701;SDS011;23548;51.196;6.838;2023-07-20T06:50:29;15.25;;;12.27;;
37701;SDS011;23548;51.196;6.838;2023-07-20T06:52:55;15.43;;;11.55;;
37701;SDS011;23548;51.196;6.838;2023-07-20T06:55:20;11.02;;;9.55;;
37701;SDS011;23548;51.196;6.838;2023-07-20T06:57:46;11.80;;;8.63;;
37701;SDS011;23548;51.196;6.838;2023-07-20T07:00:12;12.13;;;8.27;;
37701;SDS011;23548;51.196;6.838;2023-07-20T07:02:38;10.15;;;7.13;;
37701;SDS011;23548;51.196;6.838;2023-07-20T07:05:04;8.85;;;6.95;;
37701;SDS011;23548;51.196;6.838;2023-07-20T07:07:31;8.00;;;7.10;;
37701;SDS011;23548;51.196;6.838;2023-07-20T07:09:57;8.23;;;7.43;;
37701;SDS011;23548;51.196;6.838;2023-07-20T07:12:23;8.85;;;6.35;;
37701;SDS011;23548;51.196;6.838;2023-07-20T07:14:48;9.75;;;7.15;;
37701;SDS011;23548;51.196;6.838;2023-07-20T07:17:14;6.85;;;6.25;;
37701;SDS011;23548;51.196;6.838;2023-07-20T07:19:40;8.35;;;6.72;;
37701;SDS011;23548;51.196;6.838;2023-07-20T07:22:06;8.73;;;6.28;;
37701;SDS011;23548;51.196;6.838;2023-07-20T07:24:31;7.97;;;6.70;;
37701;SDS011;23548;51.196;6.838;2023-07-20T07:27:00;8.52;;;6.47;;
37701;SDS011;23548;51.196;6.838;2023-07-20T07:29:26;8.10;;;5.97;;
37701;SDS011;23548;51.196;6.838;2023-07-20T07:31:52;6.72;;;5.18;;
37701;SDS011;23548;51.196;6.838;2023-07-20T07:34:18;7.07;;;4.65;;
37701;SDS011;23548;51.196;6.838;2023-07-20T07:36:43;7.78;;;5.20;;
37701;SDS011;23548;51.196;6.838;2023-07-20T07:39:10;9.48;;;5.43;;
37701;SDS011;23548;51.196;6.838;2023-07-20T07:41:36;10.60;;;6.85;;
37701;SDS011;23548;51.196;6.838;2023-07-20T07:44:01;11.85;;;6.63;;
37701;SDS011;23548;51.196;6.838;2023-07-20T07:46:27;6.22;;;5.63;;
37701;SDS011;23548;51.196;6.838;2023-07-20T07:48:53;6.07;;;4.18;;
37701;SDS011;23548;51.196;6.838;2023-07-20T07:51:19;6.00;;;4.13;;
37701;SDS011;23548;51.196;6.838;2023-07-20T07:53:47;5.10;;;4.00;;
37701;SDS011;23548;51.196;6.838;2023-07-20T07:56:14;5.28;;;3.78;;
37701;SDS011;23548;51.196;6.838;2023-07-20T07:58:40;4.63;;;3.40;;
37701;SDS011;23548;51.196;6.838;2023-07-20T08:01:05;4.35;;;3.88;;
37701;SDS011;23548;51.196;6.838;2023-07-20T08:03:31;5.15;;;3.58;;
37701;SDS011;23548;51.196;6.838;2023-07-20T08:05:57;6.93;;;3.60;;
37701;SDS011;23548;51.196;6.838;2023-07-20T08:08:24;3.80;;;3.40;;
37701;SDS011;23548;51.196;6.838;2023-07-20T08:10:53;6.90;;;3.53;;
37701;SDS011;23548;51.196;6.838;2023-07-20T08:13:20;4.38;;;3.40;;
37701;SDS011;23548;51.196;6.838;2023-07-20T08:15:48;5.68;;;3.30;;
37701;SDS011;23548;51.196;6.838;2023-07-20T08:18:17;3.33;;;2.80;;
37701;SDS011;23548;51.196;6.838;2023-07-20T08:20:46;2.58;;;1.90;;
37701;SDS011;23548;51.196;6.838;2023-07-20T08:23:12;5.07;;;1.95;;
37701;SDS011;23548;51.196;6.838;2023-07-20T08:25:41;3.95;;;2.30;;
37701;SDS011;23548;51.196;6.838;2023-07-20T08:28:11;3.53;;;1.52;;
37701;SDS011;23548;51.196;6.838;2023-07-20T08:30:42;5.00;;;1.40;;
37701;SDS011;23548;51.196;6.838;2023-07-20T08:33:12;2.63;;;1.40;;
37701;SDS011;23548;51.196;6.838;2023-07-20T08:35:39;1.92;;;1.50;;
37701;SDS011;23548;51.196;6.838;2023-07-20T08:38:05;4.38;;;1.48;;
37701;SDS011;23548;51.196;6.838;2023-07-20T08:40:32;3.28;;;1.30;;
37701;SDS011;23548;51.196;6.838;2023-07-20T08:42:59;1.50;;;1.10;;
37701;SDS011;23548;51.196;6.838;2023-07-20T08:45:26;3.00;;;1.58;;
37701;SDS011;23548;51.196;6.838;2023-07-20T08:47:54;2.92;;;0.93;;
37701;SDS011;23548;51.196;6.838;2023-07-20T08:50:22;1.88;;;1.00;;
37701;SDS011;23548;51.196;6.838;2023-07-20T08:52:49;1.15;;;0.88;;
37701;SDS011;23548;51.196;6.838;2023-07-20T08:55:18;0.80;;;0.75;;
37701;SDS011;23548;51.196;6.838;2023-07-20T08:57:49;2.30;;;0.93;;
37701;SDS011;23548;51.196;6.838;2023-07-20T09:00:16;1.10;;;0.80;;
37701;SDS011;23548;51.196;6.838;2023-07-20T09:02:44;1.95;;;1.00;;
37701;SDS011;23548;51.196;6.838;2023-07-20T09:05:11;2.60;;;0.95;;
37701;SDS011;23548;51.196;6.838;2023-07-20T09:07:39;0.80;;;0.80;;
37701;SDS011;23548;51.196;6.838;2023-07-20T09:10:06;1.67;;;1.00;;
37701;SDS011;23548;51.196;6.838;2023-07-20T09:12:39;1.70;;;1.30;;
37701;SDS011;23548;51.196;6.838;2023-07-20T09:15:07;1.52;;;1.20;;
37701;SDS011;23548;51.196;6.838;2023-07-20T09:17:33;1.27;;;1.17;;
37701;SDS011;23548;51.196;6.838;2023-07-20T09:20:03;2.40;;;1.40;;
37701;SDS011;23548;51.196;6.838;2023-07-20T09:22:36;1.00;;;0.90;;
37701;SDS011;23548;51.196;6.838;2023-07-20T09:25:07;1.30;;;1.13;;
37701;SDS011;23548;51.196;6.838;2023-07-20T09:27:37;1.23;;;1.10;;
37701;SDS011;23548;51.196;6.838;2023-07-20T09:30:04;1.45;;;1.33;;
37701;SDS011;23548;51.196;6.838;2023-07-20T09:35:12;3.90;;;1.92;;
37701;SDS011;23548;51.196;6.838;2023-07-20T09:37:39;2.58;;;1.75;;
37701;SDS011;23548;51.196;6.838;2023-07-20T09:40:06;2.00;;;1.30;;
37701;SDS011;23548;51.196;6.838;2023-07-20T09:42:34;1.48;;;1.38;;
37701;SDS011;23548;51.196;6.838;2023-07-20T09:45:01;1.98;;;1.15;;
37701;SDS011;23548;51.196;6.838;2023-07-20T09:47:27;1.25;;;1.08;;
37701;SDS011;23548;51.196;6.838;2023-07-20T09:50:03;1.40;;;1.10;;
37701;SDS011;23548;51.196;6.838;2023-07-20T09:52:29;2.67;;;1.52;;
37701;SDS011;23548;51.196;6.838;2023-07-20T09:54:56;1.85;;;0.85;;
37701;SDS011;23548;51.196;6.838;2023-07-20T09:57:22;2.40;;;1.00;;
37701;SDS011;23548;51.196;6.838;2023-07-20T09:59:48;1.27;;;1.05;;
37701;SDS011;23548;51.196;6.838;2023-07-20T10:02:25;2.47;;;1.67;;
37701;SDS011;23548;51.196;6.838;2023-07-20T10:04:58;3.20;;;2.13;;
37701;SDS011;23548;51.196;6.838;2023-07-20T10:07:28;2.58;;;2.03;;
37701;SDS011;23548;51.196;6.838;2023-07-20T10:09:55;4.63;;;1.60;;
37701;SDS011;23548;51.196;6.838;2023-07-20T10:12:24;4.70;;;1.20;;
37701;SDS011;23548;51.196;6.838;2023-07-20T10:14:54;2.15;;;1.40;;
37701;SDS011;23548;51.196;6.838;2023-07-20T10:17:31;1.63;;;1.10;;
37701;SDS011;23548;51.196;6.838;2023-07-20T10:19:57;1.88;;;0.90;;
37701;SDS011;23548;51.196;6.838;2023-07-20T10:22:29;0.80;;;0.70;;
37701;SDS011;23548;51.196;6.838;2023-07-20T10:24:59;3.13;;;1.00;;
37701;SDS011;23548;51.196;6.838;2023-07-20T10:27:26;2.08;;;0.68;;
37701;SDS011;23548;51.196;6.838;2023-07-20T10:29:52;1.77;;;1.20;;
37701;SDS011;23548;51.196;6.838;2023-07-20T10:32:20;1.30;;;1.05;;
37701;SDS011;23548;51.196;6.838;2023-07-20T10:34:50;1.98;;;1.15;;
37701;SDS011;23548;51.196;6.838;2023-07-20T10:40:24;3.83;;;1.00;;
37701;SDS011;23548;51.196;6.838;2023-07-20T10:42:56;1.50;;;0.88;;
37701;SDS011;23548;51.196;6.838;2023-07-20T10:45:33;1.52;;;0.90;;
37701;SDS011;23548;51.196;6.838;2023-07-20T10:50:41;1.88;;;0.95;;
37701;SDS011;23548;51.196;6.838;2023-07-20T10:53:14;0.70;;;0.50;;
37701;SDS011;23548;51.196;6.838;2023-07-20T10:55:43;1.00;;;0.50;;
37701;SDS011;23548;51.196;6.838;2023-07-20T10:58:12;1.40;;;0.65;;
37701;SDS011;23548;51.196;6.838;2023-07-20T11:01:01;1.50;;;0.75;;
37701;SDS011;23548;51.196;6.838;2023-07-20T11:03:31;1.20;;;0.60;;
37701;SDS011;23548;51.196;6.838;2023-07-20T11:05:58;2.00;;;0.73;;
37701;SDS011;23548;51.196;6.838;2023-07-20T11:08:40;1.73;;;0.77;;
37701;SDS011;23548;51.196;6.838;2023-07-20T11:11:20;0.82;;;0.80;;
37701;SDS011;23548;51.196;6.838;2023-07-20T11:13:56;1.38;;;0.80;;
37701;SDS011;23548;51.196;6.838;2023-07-20T11:19:15;1.25;;;0.60;;
37701;SDS011;23548;51.196;6.838;2023-07-20T11:21:46;0.95;;;0.85;;
37701;SDS011;23548;51.196;6.838;2023-07-20T11:24:15;1.45;;;0.95;;
37701;SDS011;23548;51.196;6.838;2023-07-20T11:26:42;1.70;;;0.68;;
37701;SDS011;23548;51.196;6.838;2023-07-20T11:29:09;2.15;;;0.80;;
37701;SDS011;23548;51.196;6.838;2023-07-20T11:31:35;1.92;;;0.80;;
37701;SDS011;23548;51.196;6.838;2023-07-20T11:34:05;1.25;;;1.00;;
37701;SDS011;23548;51.196;6.838;2023-07-20T11:36:31;2.58;;;0.73;;
37701;SDS011;23548;51.196;6.838;2023-07-20T11:38:58;1.17;;;0.70;;
37701;SDS011;23548;51.196;6.838;2023-07-20T11:41:25;1.40;;;1.00;;
37701;SDS011;23548;51.196;6.838;2023-07-20T11:43:51;2.22;;;0.73;;
37701;SDS011;23548;51.196;6.838;2023-07-20T11:46:19;2.88;;;0.90;;
37701;SDS011;23548;51.196;6.838;2023-07-20T11:48:44;2.33;;;0.90;;
37701;SDS011;23548;51.196;6.838;2023-07-20T11:51:16;1.98;;;0.73;;
37701;SDS011;23548;51.196;6.838;2023-07-20T11:53:45;0.90;;;0.73;;
37701;SDS011;23548;51.196;6.838;2023-07-20T11:56:12;1.38;;;0.93;;
37701;SDS011;23548;51.196;6.838;2023-07-20T11:58:42;2.63;;;0.80;;
37701;SDS011;23548;51.196;6.838;2023-07-20T12:01:14;0.68;;;0.68;;
37701;SDS011;23548;51.196;6.838;2023-07-20T12:03:41;0.93;;;0.70;;
37701;SDS011;23548;51.196;6.838;2023-07-20T12:06:08;2.75;;;0.82;;
37701;SDS011;23548;51.196;6.838;2023-07-20T12:08:34;1.30;;;0.90;;
37701;SDS011;23548;51.196;6.838;2023-07-20T12:11:04;3.20;;;1.08;;
37701;SDS011;23548;51.196;6.838;2023-07-20T12:13:36;1.98;;;0.95;;
37701;SDS011;23548;51.196;6.838;2023-07-20T12:16:14;3.50;;;1.10;;
37701;SDS011;23548;51.196;6.838;2023-07-20T12:18:42;2.90;;;1.02;;
37701;SDS011;23548;51.196;6.838;2023-07-20T12:21:08;2.22;;;0.93;;
37701;SDS011;23548;51.196;6.838;2023-07-20T12:23:38;0.60;;;0.60;;
37701;SDS011;23548;51.196;6.838;2023-07-20T12:26:08;3.17;;;1.08;;
37701;SDS011;23548;51.196;6.838;2023-07-20T12:28:41;2.17;;;0.90;;
37701;SDS011;23548;51.196;6.838;2023-07-20T12:31:08;1.30;;;1.00;;
37701;SDS011;23548;51.196;6.838;2023-07-20T12:33:35;3.35;;;1.10;;
37701;SDS011;23548;51.196;6.838;2023-07-20T12:36:02;2.13;;;0.93;;
37701;SDS011;23548;51.196;6.838;2023-07-20T12:38:28;1.38;;;0.90;;
37701;SDS011;23548;51.196;6.838;2023-07-20T12:40:55;2.83;;;1.00;;
37701;SDS011;23548;51.196;6.838;2023-07-20T12:43:21;2.95;;;1.13;;
37701;SDS011;23548;51.196;6.838;2023-07-20T12:45:47;1.55;;;1.08;;
37701;SDS011;23548;51.196;6.838;2023-07-20T12:48:13;2.45;;;1.30;;
37701;SDS011;23548;51.196;6.838;2023-07-20T12:50:39;1.73;;;1.08;;
37701;SDS011;23548;51.196;6.838;2023-07-20T12:53:05;1.80;;;1.10;;
37701;SDS011;23548;51.196;6.838;2023-07-20T12:55:31;3.17;;;1.10;;
37701;SDS011;23548;51.196;6.838;2023-07-20T12:57:57;2.72;;;1.20;;
37701;SDS011;23548;51.196;6.838;2023-07-20T13:00:22;0.82;;;0.80;;
37701;SDS011;23548;51.196;6.838;2023-07-20T13:02:48;2.53;;;1.30;;
37701;SDS011;23548;51.196;6.838;2023-07-20T13:05:15;0.75;;;0.75;;
37701;SDS011;23548;51.196;6.838;2023-07-20T13:07:40;1.98;;;1.10;;
37701;SDS011;23548;51.196;6.838;2023-07-20T13:10:06;1.27;;;1.10;;
37701;SDS011;23548;51.196;6.838;2023-07-20T13:12:34;3.00;;;0.90;;
37701;SDS011;23548;51.196;6.838;2023-07-20T13:15:01;1.80;;;0.80;;
37701;SDS011;23548;51.196;6.838;2023-07-20T13:17:31;1.17;;;0.95;;
37701;SDS011;23548;51.196;6.838;2023-07-20T13:19:57;1.13;;;0.80;;
37701;SDS011;23548;51.196;6.838;2023-07-20T13:22:23;1.10;;;0.90;;
37701;SDS011;23548;51.196;6.838;2023-07-20T13:24:49;2.03;;;0.93;;
37701;SDS011;23548;51.196;6.838;2023-07-20T13:27:15;1.17;;;0.93;;
37701;SDS011;23548;51.196;6.838;2023-07-20T13:29:41;1.10;;;1.00;;
37701;SDS011;23548;51.196;6.838;2023-07-20T13:32:07;1.88;;;1.02;;
37701;SDS011;23548;51.196;6.838;2023-07-20T13:34:34;3.30;;;0.95;;
37701;SDS011;23548;51.196;6.838;2023-07-20T13:37:00;2.70;;;0.82;;
37701;SDS011;23548;51.196;6.838;2023-07-20T13:39:27;5.93;;;0.90;;
37701;SDS011;23548;51.196;6.838;2023-07-20T13:41:53;1.98;;;1.20;;
37701;SDS011;23548;51.196;6.838;2023-07-20T13:44:22;2.38;;;1.10;;
37701;SDS011;23548;51.196;6.838;2023-07-20T13:46:48;3.10;;;1.00;;
37701;SDS011;23548;51.196;6.838;2023-07-20T13:49:14;1.45;;;1.00;;
37701;SDS011;23548;51.196;6.838;2023-07-20T13:51:41;2.08;;;1.10;;
37701;SDS011;23548;51.196;6.838;2023-07-20T13:54:07;1.92;;;1.40;;
37701;SDS011;23548;51.196;6.838;2023-07-20T13:56:34;1.50;;;0.95;;
37701;SDS011;23548;51.196;6.838;2023-07-20T13:59:00;2.80;;;1.13;;
37701;SDS011;23548;51.196;6.838;2023-07-20T14:01:26;1.63;;;1.00;;
37701;SDS011;23548;51.196;6.838;2023-07-20T14:03:53;4.03;;;1.15;;
37701;SDS011;23548;51.196;6.838;2023-07-20T14:06:19;1.30;;;1.20;;
37701;SDS011;23548;51.196;6.838;2023-07-20T14:08:45;3.72;;;1.17;;
37701;SDS011;23548;51.196;6.838;2023-07-20T14:11:14;2.65;;;0.93;;
37701;SDS011;23548;51.196;6.838;2023-07-20T14:13:40;3.58;;;1.27;;
37701;SDS011;23548;51.196;6.838;2023-07-20T14:16:06;1.42;;;1.00;;
37701;SDS011;23548;51.196;6.838;2023-07-20T14:18:33;1.48;;;1.00;;
37701;SDS011;23548;51.196;6.838;2023-07-20T14:20:58;2.28;;;1.10;;
37701;SDS011;23548;51.196;6.838;2023-07-20T14:23:24;4.03;;;1.02;;
37701;SDS011;23548;51.196;6.838;2023-07-20T14:25:50;1.42;;;0.95;;
37701;SDS011;23548;51.196;6.838;2023-07-20T14:28:16;2.05;;;1.30;;
37701;SDS011;23548;51.196;6.838;2023-07-20T14:30:42;2.45;;;1.33;;
37701;SDS011;23548;51.196;6.838;2023-07-20T14:33:07;4.97;;;1.13;;
37701;SDS011;23548;51.196;6.838;2023-07-20T14:35:33;2.35;;;0.80;;
37701;SDS011;23548;51.196;6.838;2023-07-20T14:37:59;1.10;;;1.00;;
37701;SDS011;23548;51.196;6.838;2023-07-20T14:40:26;2.35;;;1.10;;
37701;SDS011;23548;51.196;6.838;2023-07-20T14:42:51;1.02;;;0.93;;
37701;SDS011;23548;51.196;6.838;2023-07-20T14:45:18;1.33;;;1.00;;
37701;SDS011;23548;51.196;6.838;2023-07-20T14:47:44;1.25;;;0.90;;
37701;SDS011;23548;51.196;6.838;2023-07-20T14:50:10;2.38;;;1.08;;
37701;SDS011;23548;51.196;6.838;2023-07-20T14:52:36;3.25;;;1.23;;
37701;SDS011;23548;51.196;6.838;2023-07-20T14:55:02;2.40;;;0.80;;
37701;SDS011;23548;51.196;6.838;2023-07-20T14:57:28;1.10;;;0.90;;
37701;SDS011;23548;51.196;6.838;2023-07-20T14:59:54;1.10;;;0.80;;
37701;SDS011;23548;51.196;6.838;2023-07-20T15:02:20;2.60;;;1.50;;